createdAt,value
2018-09-02T00:00:40.399Z,66.56
2018-09-02T00:03:10.035Z,66.83
2018-09-02T00:05:39.667Z,66.49
2018-09-02T00:08:09.381Z,66.29
2018-09-02T00:10:39.202Z,66.33
2018-09-02T00:13:08.976Z,66.21
2018-09-02T00:15:38.597Z,67.13
2018-09-02T00:18:08.331Z,66.70
2018-09-02T00:20:38.203Z,66.66
2018-09-02T00:23:08.051Z,66.46
2018-09-02T00:25:38.139Z,66.80
2018-09-02T00:28:08.115Z,66.62
2018-09-02T00:30:37.850Z,66.72
2018-09-02T00:33:07.546Z,67.43
2018-09-02T00:35:37.281Z,66.92
2018-09-02T00:38:07.399Z,67.61
2018-09-02T00:40:37.007Z,67.01
2018-09-02T00:43:06.631Z,67.80
2018-09-02T00:45:36.652Z,69.26
2018-09-02T00:48:06.350Z,69.15
2018-09-02T00:50:36.168Z,70.07
2018-09-02T00:53:06.111Z,68.97
2018-09-02T00:55:35.683Z,70.16
2018-09-02T00:58:06.040Z,69.09
2018-09-02T01:00:36.099Z,68.63
2018-09-02T01:03:06.047Z,69.40
2018-09-02T01:05:36.099Z,69.45
2018-09-02T01:08:06.117Z,69.66
2018-09-02T01:10:35.691Z,69.73
2018-09-02T01:13:05.394Z,69.87
2018-09-02T01:15:35.135Z,69.76
2018-09-02T01:18:04.798Z,69.58
2018-09-02T01:20:34.996Z,69.83
2018-09-02T01:23:04.862Z,69.58
2018-09-02T01:25:34.783Z,70.35
2018-09-02T01:28:04.347Z,69.64
2018-09-02T01:30:33.975Z,69.43
2018-09-02T01:33:03.858Z,69.73
2018-09-02T01:35:34.572Z,70.26
2018-09-02T01:38:05.338Z,70.56
2018-09-02T01:40:36.158Z,70.93
2018-09-02T01:43:06.318Z,70.30
2018-09-02T01:45:35.998Z,70.64
2018-09-02T01:48:05.935Z,70.25
2018-09-02T01:50:35.514Z,70.52
2018-09-02T01:53:05.134Z,70.32
2018-09-02T01:55:35.140Z,70.80
2018-09-02T01:58:04.972Z,71.67
2018-09-02T02:00:34.654Z,71.06
2018-09-02T02:03:04.311Z,69.87
2018-09-02T02:05:34.212Z,69.73
2018-09-02T02:08:03.808Z,70.83
2018-09-02T02:10:33.390Z,70.82
2018-09-02T02:13:03.023Z,70.07
2018-09-02T02:15:32.647Z,71.01
2018-09-02T02:18:02.658Z,69.98
2018-09-02T02:20:32.363Z,70.01
2018-09-02T02:23:02.342Z,69.04
2018-09-02T02:25:31.975Z,68.41
2018-09-02T02:28:01.670Z,68.54
2018-09-02T02:30:31.386Z,69.95
2018-09-02T02:33:01.191Z,69.70
2018-09-02T02:35:31.019Z,70.01
2018-09-02T02:38:00.595Z,68.83
2018-09-02T02:40:30.343Z,69.28
2018-09-02T02:42:59.894Z,70.06
2018-09-02T02:45:29.588Z,71.44
2018-09-02T02:47:59.655Z,71.63
2018-09-02T02:50:29.358Z,71.38
2018-09-02T02:53:03.655Z,70.69
2018-09-02T02:55:34.970Z,71.55
2018-09-02T02:58:04.726Z,70.48
2018-09-02T03:00:34.353Z,69.70
2018-09-02T03:03:04.150Z,69.81
2018-09-02T03:05:33.809Z,69.56
2018-09-02T03:08:03.842Z,70.88
2018-09-02T03:10:33.473Z,70.16
2018-09-02T03:13:03.383Z,71.18
2018-09-02T03:15:33.005Z,71.50
2018-09-02T03:18:02.615Z,70.24
2018-09-02T03:20:32.635Z,68.34
2018-09-02T03:23:02.464Z,69.91
2018-09-02T03:25:32.359Z,69.75
2018-09-02T03:28:01.962Z,70.14
2018-09-02T03:30:31.765Z,69.90
2018-09-02T03:33:01.295Z,70.54
2018-09-02T03:35:31.109Z,69.95
2018-09-02T03:38:00.679Z,69.41
2018-09-02T03:40:30.335Z,70.37
2018-09-02T03:43:00.099Z,69.46
2018-09-02T03:45:29.742Z,69.08
2018-09-02T03:47:59.423Z,69.61
2018-09-02T03:50:28.948Z,69.91
2018-09-02T03:52:58.638Z,71.37
2018-09-02T03:55:28.602Z,72.66
2018-09-02T03:57:58.244Z,73.27
2018-09-02T04:00:27.907Z,73.90
2018-09-02T04:02:57.411Z,73.60
2018-09-02T04:05:27.253Z,73.28
2018-09-02T04:07:56.815Z,73.94
2018-09-02T04:10:26.631Z,72.36
2018-09-02T04:12:56.199Z,72.51
2018-09-02T04:15:25.960Z,72.03
2018-09-02T04:17:55.708Z,72.37
2018-09-02T04:20:34.784Z,72.02
2018-09-02T04:23:05.680Z,73.37
2018-09-02T04:25:35.794Z,73.34
2018-09-02T04:28:05.411Z,73.58
2018-09-02T04:30:35.043Z,74.03
2018-09-02T04:33:04.647Z,73.42
2018-09-02T04:35:34.321Z,74.48
2018-09-02T04:38:04.062Z,73.59
2018-09-02T04:40:33.762Z,74.29
2018-09-02T04:43:03.319Z,71.90
2018-09-02T04:45:33.084Z,73.44
2018-09-02T04:48:02.804Z,73.63
2018-09-02T04:50:32.599Z,72.86
2018-09-02T04:53:02.328Z,73.90
2018-09-02T04:55:32.983Z,73.81
2018-09-02T04:58:02.752Z,74.58
2018-09-02T05:00:32.462Z,74.80
2018-09-02T05:03:02.171Z,74.88
2018-09-02T05:05:32.016Z,74.96
2018-09-02T05:08:01.582Z,75.61
2018-09-02T05:10:31.322Z,77.24
2018-09-02T05:13:01.027Z,76.70
2018-09-02T05:15:30.822Z,77.28
2018-09-02T05:18:00.476Z,77.66
2018-09-02T05:20:30.246Z,77.72
2018-09-02T05:22:59.983Z,78.26
2018-09-02T05:25:29.681Z,78.66
2018-09-02T05:27:59.803Z,78.14
2018-09-02T05:30:29.434Z,77.18
2018-09-02T05:32:59.090Z,77.21
2018-09-02T05:35:29.122Z,77.78
2018-09-02T05:37:58.690Z,76.87
2018-09-02T05:40:28.350Z,76.98
2018-09-02T05:42:58.036Z,77.54
2018-09-02T05:45:28.086Z,77.38
2018-09-02T05:47:57.651Z,78.02
2018-09-02T05:50:27.357Z,78.41
2018-09-02T05:52:56.984Z,78.53
2018-09-02T05:55:26.662Z,78.09
2018-09-02T05:57:56.304Z,78.42
2018-09-02T06:00:25.979Z,79.20
2018-09-02T06:02:55.649Z,79.51
2018-09-02T06:05:26.533Z,79.29
2018-09-02T06:07:57.649Z,79.73
2018-09-02T06:10:27.395Z,80.22
2018-09-02T06:12:57.110Z,80.11
2018-09-02T06:15:26.804Z,79.47
2018-09-02T06:17:56.326Z,79.06
2018-09-02T06:20:26.215Z,79.63
2018-09-02T06:22:56.251Z,79.48
2018-09-02T06:25:25.807Z,79.37
2018-09-02T06:27:55.540Z,79.23
2018-09-02T06:30:25.071Z,79.83
2018-09-02T06:32:54.656Z,79.10
2018-09-02T06:35:24.572Z,78.66
2018-09-02T06:37:54.291Z,79.53
2018-09-02T06:40:23.934Z,79.77
2018-09-02T06:42:53.505Z,80.00
2018-09-02T06:45:23.327Z,79.98
2018-09-02T06:47:52.947Z,79.82
2018-09-02T06:50:22.785Z,80.33
2018-09-02T06:52:52.853Z,80.35
2018-09-02T06:55:23.203Z,79.65
2018-09-02T06:57:53.087Z,80.84
2018-09-02T07:00:22.818Z,80.26
2018-09-02T07:02:52.434Z,79.79
2018-09-02T07:05:22.011Z,80.63
2018-09-02T07:07:51.611Z,81.20
2018-09-02T07:10:21.280Z,81.20
2018-09-02T07:12:51.012Z,80.84
2018-09-02T07:15:20.594Z,81.51
2018-09-02T07:17:50.120Z,81.26
2018-09-02T07:20:19.873Z,81.18
2018-09-02T07:22:49.871Z,81.66
2018-09-02T07:25:19.387Z,81.13
2018-09-02T07:27:49.019Z,80.85
2018-09-02T07:30:18.538Z,81.13
2018-09-02T07:32:48.083Z,80.50
2018-09-02T07:35:17.608Z,79.55
2018-09-02T07:37:47.295Z,80.50
2018-09-02T07:40:17.000Z,80.34
2018-09-02T07:42:47.023Z,80.00
2018-09-02T07:45:17.465Z,80.33
2018-09-02T07:47:47.273Z,80.81
2018-09-02T07:50:16.830Z,80.28
2018-09-02T07:52:46.438Z,79.28
2018-09-02T07:55:15.983Z,79.68
2018-09-02T07:57:45.534Z,79.82
2018-09-02T08:00:15.607Z,79.85
2018-09-02T08:02:45.310Z,78.96
2018-09-02T08:05:15.171Z,79.45
2018-09-02T08:07:44.878Z,80.58
2018-09-02T08:10:14.530Z,80.42
2018-09-02T08:12:44.278Z,80.86
2018-09-02T08:15:13.822Z,80.03
2018-09-02T08:17:43.314Z,79.79
2018-09-02T08:20:12.888Z,79.71
2018-09-02T08:22:42.528Z,80.65
2018-09-02T08:25:12.091Z,80.94
2018-09-02T08:27:41.701Z,80.53
2018-09-02T08:30:11.332Z,80.28
2018-09-02T08:32:41.202Z,80.62
2018-09-02T08:35:10.953Z,80.58
2018-09-02T08:37:40.687Z,80.56
2018-09-02T08:40:10.571Z,80.45
2018-09-02T08:42:40.167Z,81.16
2018-09-02T08:45:10.555Z,79.96
2018-09-02T08:47:40.217Z,78.80
2018-09-02T08:50:09.831Z,78.76
2018-09-02T08:52:39.555Z,79.50
2018-09-02T08:55:09.371Z,79.54
2018-09-02T08:57:38.915Z,78.97
2018-09-02T09:00:10.133Z,79.12
2018-09-02T09:02:39.655Z,79.13
2018-09-02T09:05:09.603Z,79.31
2018-09-02T09:07:39.341Z,79.64
2018-09-02T09:10:08.987Z,80.80
2018-09-02T09:12:38.539Z,79.62
2018-09-02T09:15:08.486Z,79.96
2018-09-02T09:17:38.057Z,81.01
2018-09-02T09:20:08.844Z,79.82
2018-09-02T09:22:39.403Z,79.70
2018-09-02T09:25:10.858Z,80.49
2018-09-02T09:27:41.032Z,80.07
2018-09-02T09:30:11.278Z,79.77
2018-09-02T09:32:41.115Z,80.12
2018-09-02T09:35:10.716Z,80.17
2018-09-02T09:37:40.309Z,80.21
2018-09-02T09:40:09.883Z,80.00
2018-09-02T09:42:39.435Z,80.26
2018-09-02T09:45:09.065Z,81.03
2018-09-02T09:47:38.685Z,80.02
2018-09-02T09:50:08.698Z,80.17
2018-09-02T09:52:38.284Z,80.16
2018-09-02T09:55:08.106Z,79.85
2018-09-02T09:57:37.755Z,80.75
2018-09-02T10:00:08.017Z,79.86
2018-09-02T10:02:37.873Z,79.67
2018-09-02T10:05:07.761Z,80.33
2018-09-02T10:07:37.523Z,81.13
2018-09-02T10:10:07.663Z,79.77
2018-09-02T10:12:37.465Z,80.11
2018-09-02T10:15:07.121Z,80.08
2018-09-02T10:17:36.706Z,80.50
2018-09-02T10:20:06.379Z,79.96
2018-09-02T10:22:35.987Z,78.52
2018-09-02T10:25:06.339Z,79.82
2018-09-02T10:27:35.970Z,80.96
2018-09-02T10:30:05.843Z,79.45
2018-09-02T10:32:35.651Z,79.28
2018-09-02T10:35:05.723Z,79.10
2018-09-02T10:37:35.410Z,79.95
2018-09-02T10:40:06.072Z,80.52
2018-09-02T10:42:35.891Z,81.11
2018-09-02T10:45:06.499Z,80.26
2018-09-02T10:47:36.716Z,80.45
2018-09-02T10:50:07.746Z,80.38
2018-09-02T10:52:37.634Z,79.45
2018-09-02T10:55:07.760Z,80.37
2018-09-02T10:57:37.502Z,80.44
2018-09-02T11:00:09.756Z,80.36
2018-09-02T11:02:39.842Z,80.06
2018-09-02T11:05:09.971Z,79.76
2018-09-02T11:07:39.719Z,79.68
2018-09-02T11:10:10.116Z,79.24
2018-09-02T11:12:39.732Z,79.66
2018-09-02T11:15:09.782Z,80.13
2018-09-02T11:17:39.455Z,79.52
2018-09-02T11:20:10.201Z,80.28
2018-09-02T11:22:39.991Z,80.09
2018-09-02T11:25:09.634Z,79.53
2018-09-02T11:27:39.267Z,80.05
2018-09-02T11:30:09.248Z,80.77
2018-09-02T11:32:38.893Z,80.14
2018-09-02T11:35:08.656Z,80.29
2018-09-02T11:37:38.400Z,80.28
2018-09-02T11:40:09.094Z,79.56
2018-09-02T11:42:38.830Z,80.47
2018-09-02T11:45:08.893Z,79.90
2018-09-02T11:47:38.645Z,78.63
2018-09-02T11:50:08.403Z,79.12
2018-09-02T11:52:38.140Z,80.15
2018-09-02T11:55:08.114Z,79.84
2018-09-02T11:57:37.782Z,79.57
2018-09-02T12:00:08.187Z,78.25
2018-09-02T12:02:38.032Z,78.68
2018-09-02T12:05:07.829Z,79.02
2018-09-02T12:07:37.453Z,78.25
2018-09-02T12:10:07.170Z,78.79
2018-09-02T12:12:36.726Z,78.34
2018-09-02T12:15:06.364Z,79.10
2018-09-02T12:17:35.988Z,79.08
2018-09-02T12:20:05.750Z,78.70
2018-09-02T12:22:35.479Z,77.60
2018-09-02T12:25:06.178Z,78.85
2018-09-02T12:27:35.935Z,79.21
2018-09-02T12:30:05.727Z,79.47
2018-09-02T12:32:35.357Z,78.92
2018-09-02T12:35:05.057Z,79.69
2018-09-02T12:37:35.367Z,79.45
2018-09-02T12:40:04.951Z,79.07
2018-09-02T12:42:34.668Z,78.94
2018-09-02T12:45:04.447Z,79.28
2018-09-02T12:47:34.091Z,78.58
2018-09-02T12:50:03.868Z,79.50
2018-09-02T12:52:33.755Z,79.38
2018-09-02T12:55:03.880Z,79.28
2018-09-02T12:57:33.775Z,79.77
2018-09-02T13:00:03.411Z,79.37
2018-09-02T13:02:33.206Z,79.00
2018-09-02T13:05:03.734Z,79.04
2018-09-02T13:07:33.339Z,79.30
2018-09-02T13:10:03.039Z,78.65
2018-09-02T13:12:32.594Z,78.64
2018-09-02T13:15:02.503Z,79.08
2018-09-02T13:17:32.466Z,78.07
2018-09-02T13:20:02.062Z,79.41
2018-09-02T13:22:31.923Z,79.45
2018-09-02T13:25:01.519Z,79.60
2018-09-02T13:27:31.093Z,79.58
2018-09-02T13:30:00.688Z,79.02
2018-09-02T13:32:30.309Z,79.18
2018-09-02T13:35:00.081Z,78.33
2018-09-02T13:37:29.855Z,78.77
2018-09-02T13:39:59.495Z,78.86
2018-09-02T13:42:29.159Z,79.30
2018-09-02T13:44:58.780Z,79.56
2018-09-02T13:47:29.421Z,79.23
2018-09-02T13:49:58.986Z,78.69
2018-09-02T13:52:28.513Z,77.70
2018-09-02T13:54:58.070Z,78.47
2018-09-02T13:57:47.854Z,79.27
2018-09-02T14:00:17.706Z,79.17
2018-09-02T14:02:47.506Z,79.19
2018-09-02T14:05:17.919Z,78.46
2018-09-02T14:07:47.873Z,78.62
2018-09-02T14:10:17.640Z,78.67
2018-09-02T14:12:47.535Z,79.08
2018-09-02T14:15:17.100Z,79.06
2018-09-02T14:17:46.786Z,79.40
2018-09-02T14:20:16.515Z,78.23
2018-09-02T14:22:46.136Z,79.14
2018-09-02T14:25:15.906Z,79.61
2018-09-02T14:27:45.438Z,79.14
2018-09-02T14:30:15.000Z,79.56
2018-09-02T14:32:44.847Z,79.62
2018-09-02T14:35:14.986Z,80.39
2018-09-02T14:37:44.555Z,80.04
2018-09-02T14:40:14.137Z,80.54
2018-09-02T14:42:43.736Z,80.40
2018-09-02T14:45:13.552Z,80.18
2018-09-02T14:47:43.140Z,80.02
2018-09-02T14:50:12.722Z,79.61
2018-09-02T14:52:42.300Z,80.41
2018-09-02T14:55:12.016Z,80.21
2018-09-02T14:57:41.644Z,79.48
2018-09-02T15:00:11.603Z,79.96
2018-09-02T15:02:41.161Z,80.11
2018-09-02T15:05:11.346Z,80.49
2018-09-02T15:07:40.883Z,80.28
2018-09-02T15:10:10.796Z,79.69
2018-09-02T15:12:40.482Z,79.69
2018-09-02T15:15:10.397Z,79.71
2018-09-02T15:17:39.994Z,79.90
2018-09-02T15:20:09.572Z,79.93
2018-09-02T15:22:39.193Z,79.47
2018-09-02T15:25:08.738Z,80.22
2018-09-02T15:27:38.527Z,79.71
2018-09-02T15:30:08.260Z,79.87
2018-09-02T15:32:37.829Z,79.57
2018-09-02T15:35:07.455Z,79.74
2018-09-02T15:37:37.083Z,79.71
2018-09-02T15:40:07.195Z,79.37
2018-09-02T15:42:36.772Z,78.97
2018-09-02T15:45:06.707Z,79.86
2018-09-02T15:47:36.834Z,80.17
2018-09-02T15:50:07.663Z,80.52
2018-09-02T15:52:37.570Z,80.39
2018-09-02T15:55:08.078Z,79.56
2018-09-02T15:57:37.679Z,79.83
2018-09-02T16:00:08.605Z,79.94
2018-09-02T16:02:38.679Z,80.25
2018-09-02T16:05:08.655Z,80.92
2018-09-02T16:07:38.251Z,80.29
2018-09-02T16:10:07.871Z,81.05
2018-09-02T16:12:37.469Z,80.98
2018-09-02T16:15:07.590Z,81.19
2018-09-02T16:17:37.194Z,80.52
2018-09-02T16:20:07.829Z,80.89
2018-09-02T16:22:37.568Z,81.02
2018-09-02T16:25:07.385Z,80.76
2018-09-02T16:27:37.249Z,80.98
2018-09-02T16:30:08.095Z,80.95
2018-09-02T16:32:37.701Z,80.85
2018-09-02T16:35:07.351Z,81.42
2018-09-02T16:37:36.999Z,80.67
2018-09-02T16:40:06.688Z,81.16
2018-09-02T16:42:36.315Z,80.82
2018-09-02T16:45:06.091Z,81.03
2018-09-02T16:47:35.633Z,80.47
2018-09-02T16:50:05.390Z,80.65
2018-09-02T16:52:34.983Z,80.86
2018-09-02T16:55:04.671Z,81.04
2018-09-02T16:57:34.212Z,81.08
2018-09-02T17:00:04.189Z,80.95
2018-09-02T17:02:33.748Z,82.05
2018-09-02T17:05:05.993Z,81.84
2018-09-02T17:07:35.619Z,81.83
2018-09-02T17:10:05.851Z,81.90
2018-09-02T17:12:35.727Z,82.07
2018-09-02T17:15:06.136Z,82.68
2018-09-02T17:17:35.672Z,82.65
2018-09-02T17:20:05.552Z,82.95
2018-09-02T17:22:35.133Z,82.71
2018-09-02T17:25:04.816Z,83.63
2018-09-02T17:27:34.508Z,83.75
2018-09-02T17:30:04.491Z,83.85
2018-09-02T17:32:34.279Z,84.36
2018-09-02T17:35:03.949Z,84.21
2018-09-02T17:37:33.851Z,84.21
2018-09-02T17:40:03.799Z,84.30
2018-09-02T17:42:33.513Z,84.67
2018-09-02T17:45:03.381Z,83.80
2018-09-02T17:47:32.946Z,83.89
2018-09-02T17:50:02.602Z,84.31
2018-09-02T17:52:32.237Z,84.12
2018-09-02T17:55:02.158Z,84.47
2018-09-02T17:57:32.166Z,84.20
2018-09-02T18:00:02.067Z,84.66
2018-09-02T18:02:31.665Z,85.21
2018-09-02T18:05:01.556Z,85.11
2018-09-02T18:07:31.343Z,84.80
2018-09-02T18:10:01.077Z,84.93
2018-09-02T18:12:30.699Z,85.16
2018-09-02T18:15:00.282Z,85.26
2018-09-02T18:17:30.059Z,85.06
2018-09-02T18:19:59.799Z,85.41
2018-09-02T18:22:29.496Z,85.02
2018-09-02T18:24:59.135Z,84.91
2018-09-02T18:27:31.179Z,85.09
2018-09-02T18:30:01.235Z,85.32
2018-09-02T18:32:31.982Z,85.81
2018-09-02T18:35:02.323Z,85.74
2018-09-02T18:37:31.960Z,85.02
2018-09-02T18:40:02.076Z,85.26
2018-09-02T18:42:31.728Z,84.92
2018-09-02T18:45:01.381Z,85.00
2018-09-02T18:47:31.210Z,85.28
2018-09-02T18:50:01.195Z,85.05
2018-09-02T18:52:31.215Z,85.37
2018-09-02T18:55:01.082Z,85.02
2018-09-02T18:57:31.061Z,85.54
2018-09-02T19:00:00.668Z,85.85
2018-09-02T19:02:30.670Z,85.53
2018-09-02T19:05:00.725Z,85.09
2018-09-02T19:07:30.384Z,85.35
2018-09-02T19:10:00.111Z,85.30
2018-09-02T19:12:30.035Z,85.52
2018-09-02T19:15:00.049Z,86.05
2018-09-02T19:17:30.139Z,86.08
2018-09-02T19:19:59.815Z,85.96
2018-09-02T19:22:29.458Z,86.42
2018-09-02T19:24:59.297Z,85.85
2018-09-02T19:27:28.964Z,84.58
2018-09-02T19:29:58.777Z,83.96
2018-09-02T19:32:28.772Z,84.89
2018-09-02T19:34:58.630Z,84.58
2018-09-02T19:37:28.527Z,83.79
2018-09-02T19:39:58.387Z,84.39
2018-09-02T19:42:28.419Z,84.51
2018-09-02T19:44:58.521Z,84.97
2018-09-02T19:47:29.006Z,84.58
2018-09-02T19:49:58.812Z,84.95
2018-09-02T19:52:28.457Z,85.26
2018-09-02T19:54:58.159Z,85.28
2018-09-02T19:57:27.913Z,86.07
2018-09-02T19:59:57.608Z,85.16
2018-09-02T20:02:27.297Z,85.49
2018-09-02T20:04:57.015Z,85.22
2018-09-02T20:07:26.591Z,85.05
2018-09-02T20:09:56.301Z,86.13
2018-09-02T20:12:25.974Z,85.27
2018-09-02T20:14:55.809Z,84.66
2018-09-02T20:17:25.476Z,84.92
2018-09-02T20:19:55.149Z,85.08
2018-09-02T20:22:24.899Z,85.09
2018-09-02T20:24:54.793Z,84.69
2018-09-02T20:27:26.260Z,84.75
2018-09-02T20:29:55.969Z,85.57
2018-09-02T20:32:25.677Z,85.23
2018-09-02T20:34:55.323Z,84.59
2018-09-02T20:37:24.930Z,84.10
2018-09-02T20:39:54.654Z,84.48
2018-09-02T20:42:24.414Z,84.57
2018-09-02T20:44:54.048Z,85.44
2018-09-02T20:47:23.635Z,85.39
2018-09-02T20:49:53.286Z,85.08
2018-09-02T20:52:22.986Z,84.52
2018-09-02T20:54:52.574Z,84.18
2018-09-02T20:57:22.148Z,84.34
2018-09-02T20:59:51.910Z,84.06
2018-09-02T21:02:21.683Z,84.02
2018-09-02T21:04:51.747Z,84.09
2018-09-02T21:07:21.579Z,84.12
2018-09-02T21:09:51.383Z,84.33
2018-09-02T21:12:21.048Z,83.64
2018-09-02T21:14:50.882Z,84.37
2018-09-02T21:17:20.665Z,84.50
2018-09-02T21:19:50.373Z,85.65
2018-09-02T21:22:20.013Z,85.73
2018-09-02T21:24:49.674Z,85.95
2018-09-02T21:27:19.304Z,85.83
2018-09-02T21:29:49.091Z,85.98
2018-09-02T21:32:18.820Z,86.27
2018-09-02T21:34:48.528Z,85.73
2018-09-02T21:37:18.082Z,86.02
2018-09-02T21:39:48.059Z,86.03
2018-09-02T21:42:18.144Z,85.95
2018-09-02T21:44:47.855Z,86.02
2018-09-02T21:47:17.903Z,85.48
2018-09-02T21:49:47.495Z,86.21
2018-09-02T21:52:17.210Z,86.17
2018-09-02T21:54:46.853Z,85.62
2018-09-02T21:57:16.608Z,85.93
2018-09-02T21:59:46.164Z,86.07
2018-09-02T22:02:15.826Z,85.90
2018-09-02T22:04:45.583Z,86.04
2018-09-02T22:07:15.249Z,86.35
2018-09-02T22:09:44.826Z,86.67
2018-09-02T22:12:14.638Z,86.05
2018-09-02T22:14:44.347Z,86.78
2018-09-02T22:17:14.211Z,86.63
2018-09-02T22:19:43.895Z,86.25
2018-09-02T22:22:13.725Z,86.17
2018-09-02T22:24:43.623Z,86.26
2018-09-02T22:27:13.437Z,86.94
2018-09-02T22:29:43.411Z,87.34
2018-09-02T22:32:13.002Z,86.80
2018-09-02T22:34:42.590Z,86.07
2018-09-02T22:37:12.367Z,86.48
2018-09-02T22:39:41.974Z,86.18
2018-09-02T22:42:11.588Z,86.66
2018-09-02T22:44:41.168Z,85.92
2018-09-02T22:47:10.886Z,86.48
2018-09-02T22:49:40.505Z,86.39
2018-09-02T22:52:10.078Z,86.27
2018-09-02T22:54:39.803Z,86.60
2018-09-02T22:57:09.500Z,86.50
2018-09-02T22:59:39.119Z,86.18
2018-09-02T23:02:09.214Z,86.22
2018-09-02T23:04:38.959Z,86.21
2018-09-02T23:07:08.659Z,86.52
2018-09-02T23:09:38.375Z,86.36
2018-09-02T23:12:08.266Z,87.01
2018-09-02T23:14:37.943Z,86.66
2018-09-02T23:17:07.880Z,86.73
2018-09-02T23:19:37.446Z,86.68
2018-09-02T23:22:07.470Z,86.75
2018-09-02T23:24:37.114Z,86.60
2018-09-02T23:27:07.320Z,86.50
2018-09-02T23:29:36.879Z,86.49
2018-09-02T23:32:06.482Z,86.42
2018-09-02T23:34:36.191Z,86.42
2018-09-02T23:37:06.087Z,86.64
2018-09-02T23:39:35.803Z,87.04
2018-09-02T23:42:05.531Z,87.16
2018-09-02T23:44:35.523Z,87.06
2018-09-02T23:47:05.252Z,87.00
2018-09-02T23:49:34.959Z,87.02
2018-09-02T23:52:05.081Z,87.12
2018-09-02T23:54:34.851Z,86.92
2018-09-02T23:57:04.491Z,87.00
2018-09-02T23:59:34.091Z,86.67
